createdAt,value
2023-01-23T00:01:35.161Z,12.30
2023-01-23T00:04:03.491Z,13.53
2023-01-23T00:06:30.776Z,13.73
2023-01-23T00:08:58.205Z,13.23
2023-01-23T00:11:30.330Z,13.23
2023-01-23T00:13:59.280Z,13.03
2023-01-23T00:16:32.667Z,13.17
2023-01-23T00:19:00.251Z,13.77
2023-01-23T00:21:29.160Z,10.83
2023-01-23T00:23:58.780Z,13.53
2023-01-23T00:26:30.233Z,13.90
2023-01-23T00:28:57.675Z,13.93
2023-01-23T00:31:30.634Z,12.17
2023-01-23T00:34:05.984Z,14.17
2023-01-23T00:36:42.149Z,13.83
2023-01-23T00:39:19.914Z,14.83
2023-01-23T00:41:49.135Z,14.03
2023-01-23T00:44:19.908Z,14.13
2023-01-23T00:46:48.287Z,14.37
2023-01-23T00:49:17.750Z,15.20
2023-01-23T00:51:46.183Z,13.73
2023-01-23T00:54:13.206Z,14.57
2023-01-23T00:56:40.170Z,14.50
2023-01-23T00:59:07.277Z,15.03
2023-01-23T01:01:35.179Z,14.33
2023-01-23T01:04:02.198Z,14.87
2023-01-23T01:06:29.888Z,15.27
2023-01-23T01:08:58.247Z,14.10
2023-01-23T01:11:26.077Z,14.90
2023-01-23T01:13:53.697Z,15.77
2023-01-23T01:16:20.885Z,14.63
2023-01-23T01:18:47.849Z,14.10
2023-01-23T01:21:17.771Z,15.47
2023-01-23T01:23:45.188Z,14.63
2023-01-23T01:26:12.787Z,15.87
2023-01-23T01:28:42.211Z,15.00
2023-01-23T01:31:16.088Z,15.13
2023-01-23T01:33:44.125Z,15.10
2023-01-23T01:36:19.231Z,15.53
2023-01-23T01:38:46.567Z,14.80
2023-01-23T01:41:14.455Z,15.53
2023-01-23T01:43:42.942Z,15.30
2023-01-23T01:46:12.645Z,16.00
2023-01-23T01:49:29.989Z,16.20
2023-01-23T01:52:11.205Z,15.03
2023-01-23T01:54:51.065Z,16.33
2023-01-23T01:57:35.527Z,16.23
2023-01-23T02:00:17.352Z,14.90
2023-01-23T02:03:01.372Z,16.17
2023-01-23T02:05:37.940Z,16.63
2023-01-23T02:08:52.985Z,15.60
2023-01-23T02:11:20.232Z,16.90
2023-01-23T02:13:47.199Z,15.50
2023-01-23T02:16:25.279Z,15.67
2023-01-23T02:19:00.990Z,16.50
2023-01-23T02:21:29.577Z,15.93
2023-01-23T02:24:27.989Z,16.57
2023-01-23T02:26:55.018Z,16.27
2023-01-23T02:29:21.953Z,14.70
2023-01-23T02:31:52.789Z,12.27
2023-01-23T02:34:22.141Z,14.07
2023-01-23T02:36:49.432Z,16.77
2023-01-23T02:39:21.214Z,16.17
2023-01-23T02:41:51.543Z,16.03
2023-01-23T02:44:26.844Z,15.57
2023-01-23T02:47:02.709Z,16.50
2023-01-23T02:49:29.878Z,16.43
2023-01-23T02:51:57.588Z,16.00
2023-01-23T02:54:26.152Z,16.80
2023-01-23T02:56:53.627Z,15.40
2023-01-23T02:59:39.607Z,16.47
2023-01-23T03:02:06.639Z,16.40
2023-01-23T03:04:33.749Z,15.90
2023-01-23T03:07:00.825Z,15.87
2023-01-23T03:09:28.332Z,15.87
2023-01-23T03:11:55.509Z,17.27
2023-01-23T03:14:24.449Z,17.60
2023-01-23T03:16:53.719Z,16.07
2023-01-23T03:19:26.591Z,15.90
2023-01-23T03:21:54.834Z,16.47
2023-01-23T03:24:24.832Z,17.47
2023-01-23T03:26:52.365Z,17.73
2023-01-23T03:29:44.261Z,16.77
2023-01-23T03:32:14.960Z,16.50
2023-01-23T03:34:43.402Z,16.47
2023-01-23T03:37:12.614Z,16.00
2023-01-23T03:39:58.264Z,16.77
2023-01-23T03:42:25.406Z,16.77
2023-01-23T03:44:53.703Z,17.97
2023-01-23T03:47:20.842Z,16.33
2023-01-23T03:49:47.835Z,17.57
2023-01-23T03:52:15.015Z,15.53
2023-01-23T03:54:42.257Z,16.47
2023-01-23T03:57:10.275Z,16.77
2023-01-23T03:59:37.211Z,17.13
2023-01-23T04:02:07.641Z,16.63
2023-01-23T04:04:35.963Z,17.40
2023-01-23T04:07:04.194Z,15.83
2023-01-23T04:09:31.213Z,16.40
2023-01-23T04:12:00.009Z,17.00
2023-01-23T04:14:37.425Z,16.63
2023-01-23T04:17:07.494Z,17.40
2023-01-23T04:19:35.553Z,16.77
2023-01-23T04:22:03.022Z,17.73
2023-01-23T04:24:29.969Z,17.40
2023-01-23T04:26:57.019Z,16.77
2023-01-23T04:29:24.024Z,17.30
2023-01-23T04:31:51.044Z,17.07
2023-01-23T04:34:21.346Z,16.87
2023-01-23T04:36:51.368Z,16.83
2023-01-23T04:39:18.285Z,16.13
2023-01-23T04:41:45.577Z,16.63
2023-01-23T04:44:22.109Z,17.20
2023-01-23T04:46:55.440Z,15.37
2023-01-23T04:49:24.526Z,16.47
2023-01-23T04:51:55.160Z,16.63
2023-01-23T04:54:22.273Z,16.23
2023-01-23T04:56:49.856Z,16.33
2023-01-23T04:59:16.950Z,16.63
2023-01-23T05:01:45.463Z,17.10
2023-01-23T05:04:12.750Z,17.13
2023-01-23T05:06:40.084Z,16.23
2023-01-23T05:09:08.668Z,15.80
2023-01-23T05:11:35.619Z,15.17
2023-01-23T05:14:03.076Z,16.40
2023-01-23T05:16:30.143Z,17.53
2023-01-23T05:18:57.099Z,16.23
2023-01-23T05:21:24.058Z,16.47
2023-01-23T05:23:51.179Z,16.53
2023-01-23T05:26:18.240Z,15.13
2023-01-23T05:28:46.211Z,15.73
2023-01-23T05:31:13.734Z,16.37
2023-01-23T05:33:40.815Z,17.90
2023-01-23T05:36:08.124Z,17.07
2023-01-23T05:38:38.253Z,16.47
2023-01-23T05:41:05.344Z,15.20
2023-01-23T05:43:32.581Z,15.97
2023-01-23T05:46:01.497Z,16.47
2023-01-23T05:48:29.521Z,15.67
2023-01-23T05:50:56.790Z,15.73
2023-01-23T05:53:23.904Z,15.73
2023-01-23T05:55:50.995Z,16.07
2023-01-23T05:58:17.913Z,16.63
2023-01-23T06:00:44.826Z,16.93
2023-01-23T06:03:11.799Z,15.53
2023-01-23T06:05:43.301Z,16.17
2023-01-23T06:08:14.590Z,15.73
2023-01-23T06:10:41.460Z,14.70
2023-01-23T06:13:08.360Z,15.83
2023-01-23T06:15:35.425Z,15.97
2023-01-23T06:18:02.504Z,16.07
2023-01-23T06:20:29.937Z,15.00
2023-01-23T06:22:57.416Z,16.07
2023-01-23T06:25:24.844Z,16.80
2023-01-23T06:27:55.109Z,16.10
2023-01-23T06:30:22.489Z,16.37
2023-01-23T06:32:49.665Z,14.77
2023-01-23T06:35:16.832Z,14.37
2023-01-23T06:37:45.933Z,15.33
2023-01-23T06:40:14.252Z,16.47
2023-01-23T06:42:42.534Z,16.33
2023-01-23T06:45:12.094Z,15.53
2023-01-23T06:47:39.296Z,15.47
2023-01-23T06:50:07.505Z,16.53
2023-01-23T06:52:34.658Z,15.97
2023-01-23T06:55:01.633Z,15.20
2023-01-23T06:57:28.721Z,15.93
2023-01-23T06:59:55.617Z,16.17
2023-01-23T07:02:23.350Z,15.67
2023-01-23T07:04:50.443Z,16.13
2023-01-23T07:07:18.469Z,15.63
2023-01-23T07:09:45.531Z,15.90
2023-01-23T07:12:13.180Z,15.50
2023-01-23T07:14:40.099Z,16.33
2023-01-23T07:17:07.162Z,16.00
2023-01-23T07:19:34.134Z,15.63
2023-01-23T07:22:01.372Z,16.43
2023-01-23T07:24:32.469Z,16.10
2023-01-23T07:27:00.235Z,15.83
2023-01-23T07:29:27.308Z,16.23
2023-01-23T07:31:54.354Z,15.33
2023-01-23T07:34:21.379Z,16.20
2023-01-23T07:36:48.272Z,16.63
2023-01-23T07:39:16.093Z,16.03
2023-01-23T07:41:44.828Z,15.70
2023-01-23T07:44:21.687Z,15.50
2023-01-23T07:46:49.823Z,15.10
2023-01-23T07:49:17.365Z,16.10
2023-01-23T07:51:44.431Z,16.53
2023-01-23T07:54:11.698Z,16.70
2023-01-23T07:56:41.756Z,16.77
2023-01-23T07:59:09.021Z,15.17
2023-01-23T08:01:36.056Z,15.73
2023-01-23T08:04:03.215Z,15.67
2023-01-23T08:06:30.309Z,16.63
2023-01-23T08:08:57.258Z,16.93
2023-01-23T08:11:26.417Z,15.87
2023-01-23T08:13:53.498Z,15.77
2023-01-23T08:16:20.541Z,15.47
2023-01-23T08:18:47.755Z,14.10
2023-01-23T08:21:14.900Z,15.07
2023-01-23T08:23:45.779Z,16.13
2023-01-23T08:26:16.256Z,15.07
2023-01-23T08:28:46.004Z,15.83
2023-01-23T08:31:14.922Z,16.50
2023-01-23T08:33:42.472Z,16.03
2023-01-23T08:36:12.958Z,15.97
2023-01-23T08:38:40.343Z,15.77
2023-01-23T08:41:09.820Z,15.60
2023-01-23T08:43:38.187Z,15.00
2023-01-23T08:46:05.270Z,15.53
2023-01-23T08:48:34.091Z,15.70
2023-01-23T08:51:14.066Z,14.80
2023-01-23T08:53:42.026Z,15.47
2023-01-23T08:56:19.248Z,16.40
2023-01-23T08:58:51.345Z,14.00
2023-01-23T09:01:25.755Z,14.53
2023-01-23T09:03:53.299Z,16.37
2023-01-23T09:06:22.747Z,15.43
2023-01-23T09:08:50.410Z,15.50
2023-01-23T09:11:18.646Z,14.63
2023-01-23T09:13:46.870Z,16.17
2023-01-23T09:16:14.455Z,15.10
2023-01-23T09:18:42.504Z,16.93
2023-01-23T09:21:14.592Z,14.97
2023-01-23T09:23:42.301Z,15.07
2023-01-23T09:26:13.332Z,14.67
2023-01-23T09:28:42.701Z,14.43
2023-01-23T09:31:14.684Z,15.73
2023-01-23T09:33:42.724Z,15.77
2023-01-23T09:36:10.559Z,14.57
2023-01-23T09:38:37.729Z,15.27
2023-01-23T09:41:23.623Z,14.87
2023-01-23T09:44:11.644Z,14.90
2023-01-23T09:47:02.412Z,14.73
2023-01-23T09:49:53.228Z,15.27
2023-01-23T09:52:25.998Z,15.23
2023-01-23T09:55:18.446Z,13.57
2023-01-23T09:57:55.711Z,15.50
2023-01-23T10:00:29.957Z,15.47
2023-01-23T10:02:58.086Z,14.93
2023-01-23T10:06:09.306Z,15.90
2023-01-23T10:08:55.111Z,14.93
2023-01-23T10:11:42.655Z,14.73
2023-01-23T10:15:19.181Z,13.93
2023-01-23T10:18:15.882Z,14.97
2023-01-23T10:21:28.903Z,16.03
2023-01-23T10:24:40.480Z,14.93
2023-01-23T10:27:41.773Z,15.03
2023-01-23T10:30:35.101Z,14.43
2023-01-23T10:33:16.185Z,14.17
2023-01-23T10:36:05.113Z,14.87
2023-01-23T10:38:48.060Z,15.03
2023-01-23T10:41:23.549Z,13.87
2023-01-23T10:43:54.812Z,14.57
2023-01-23T10:46:43.374Z,14.43
2023-01-23T10:49:10.446Z,15.07
2023-01-23T10:51:47.845Z,14.13
2023-01-23T10:54:32.836Z,14.47
2023-01-23T10:57:24.227Z,14.37
2023-01-23T11:00:45.644Z,15.50
2023-01-23T11:03:32.630Z,13.53
2023-01-23T11:06:09.350Z,16.63
2023-01-23T11:08:47.268Z,17.47
2023-01-23T11:11:23.786Z,13.77
2023-01-23T11:14:22.643Z,15.27
2023-01-23T11:17:33.279Z,16.03
2023-01-23T11:20:32.207Z,16.50
2023-01-23T11:30:54.201Z,14.53
2023-01-23T11:33:25.240Z,13.63
2023-01-23T11:36:19.406Z,19.03
2023-01-23T11:39:19.070Z,16.03
2023-01-23T11:42:04.498Z,12.67
2023-01-23T11:44:44.999Z,14.70
2023-01-23T11:47:59.045Z,16.20
2023-01-23T11:50:55.970Z,17.30
2023-01-23T11:53:58.575Z,16.73
2023-01-23T11:56:33.301Z,11.33
2023-01-23T11:59:31.952Z,13.67
2023-01-23T12:02:40.489Z,12.03
2023-01-23T12:06:13.879Z,14.50
2023-01-23T12:09:12.275Z,13.53
2023-01-23T12:12:20.372Z,12.33
2023-01-23T12:15:23.715Z,13.13
2023-01-23T12:18:17.354Z,12.67
2023-01-23T12:20:48.312Z,11.57
2023-01-23T12:23:49.112Z,12.70
2023-01-23T12:26:24.571Z,11.60
2023-01-23T12:30:08.688Z,12.73
2023-01-23T12:32:54.733Z,12.00
2023-01-23T12:35:42.641Z,11.03
2023-01-23T12:38:44.203Z,11.20
2023-01-23T12:41:53.343Z,11.83
2023-01-23T12:44:54.107Z,12.20
2023-01-23T12:47:44.690Z,12.50
2023-01-23T12:50:42.450Z,12.43
2023-01-23T12:53:18.070Z,10.17
2023-01-23T12:56:15.571Z,11.17
2023-01-23T12:59:14.171Z,12.37
2023-01-23T13:02:46.025Z,11.53
2023-01-23T13:06:00.385Z,11.20
2023-01-23T13:08:38.389Z,9.93
2023-01-23T13:11:44.927Z,12.27
2023-01-23T13:15:06.475Z,10.73
2023-01-23T13:17:40.005Z,10.23
2023-01-23T13:20:51.932Z,11.30
2023-01-23T13:23:33.403Z,11.17
2023-01-23T13:26:15.768Z,11.07
2023-01-23T13:28:57.870Z,10.23
2023-01-23T13:31:47.507Z,10.87
2023-01-23T13:34:37.082Z,10.00
2023-01-23T13:37:51.244Z,10.73
2023-01-23T13:40:24.590Z,10.33
2023-01-23T13:42:52.019Z,10.87
2023-01-23T13:45:30.811Z,9.27
2023-01-23T14:20:39.988Z,10.73
2023-01-23T14:23:29.739Z,10.80
2023-01-23T14:25:57.517Z,11.53
2023-01-23T14:28:24.933Z,11.43
2023-01-23T14:31:06.821Z,11.17
2023-01-23T14:33:45.330Z,11.00
2023-01-23T14:36:18.336Z,12.30
2023-01-23T14:38:49.997Z,11.70
2023-01-23T14:41:20.904Z,12.07
2023-01-23T14:43:56.943Z,11.40
2023-01-23T14:46:39.107Z,10.53
2023-01-23T14:49:09.857Z,10.77
2023-01-23T14:51:39.626Z,10.80
2023-01-23T14:54:22.793Z,11.17
2023-01-23T14:56:51.132Z,10.93
2023-01-23T14:59:40.166Z,10.67
2023-01-23T15:02:40.329Z,11.30
2023-01-23T15:05:23.479Z,11.00
2023-01-23T15:08:05.951Z,11.10
2023-01-23T15:10:43.728Z,10.83
2023-01-23T15:13:50.179Z,10.57
2023-01-23T15:16:29.188Z,11.37
2023-01-23T15:19:18.790Z,11.37
2023-01-23T15:21:46.188Z,10.57
2023-01-23T15:24:13.194Z,10.80
2023-01-23T15:27:01.300Z,10.53
2023-01-23T15:29:28.476Z,11.07
2023-01-23T15:31:57.191Z,10.83
2023-01-23T15:34:29.313Z,10.83
2023-01-23T15:37:13.977Z,10.50
2023-01-23T15:40:02.416Z,10.53
2023-01-23T15:42:35.649Z,10.37
2023-01-23T15:45:15.055Z,10.50
2023-01-23T15:47:44.250Z,10.70
2023-01-23T15:50:13.275Z,10.47
2023-01-23T15:52:53.827Z,10.43
2023-01-23T15:55:26.481Z,10.73
2023-01-23T15:57:55.224Z,10.70
2023-01-23T16:00:29.961Z,11.00
2023-01-23T16:02:59.513Z,10.53
2023-01-23T16:05:35.342Z,10.53
2023-01-23T16:08:05.827Z,9.50
2023-01-23T16:10:38.480Z,10.50
2023-01-23T16:13:07.849Z,11.53
2023-01-23T16:15:38.163Z,10.23
2023-01-23T16:18:05.671Z,9.60
2023-01-23T16:20:41.233Z,10.57
2023-01-23T16:23:19.645Z,10.17
2023-01-23T16:25:48.203Z,10.30
2023-01-23T16:28:20.423Z,10.17
2023-01-23T16:30:50.720Z,10.00
2023-01-23T16:33:22.111Z,10.57
2023-01-23T16:35:51.303Z,9.77
2023-01-23T16:38:53.485Z,10.23
2023-01-23T16:41:20.454Z,10.87
2023-01-23T16:43:47.388Z,10.83
2023-01-23T16:46:17.396Z,10.83
2023-01-23T16:48:44.489Z,10.47
2023-01-23T16:51:24.169Z,10.87
2023-01-23T16:53:57.953Z,11.63
2023-01-23T16:56:38.064Z,10.50
2023-01-23T16:59:08.513Z,11.60
2023-01-23T17:01:40.525Z,10.70
2023-01-23T17:04:07.744Z,10.73
2023-01-23T17:06:34.867Z,10.50
2023-01-23T17:09:01.803Z,13.53
2023-01-23T17:11:50.081Z,17.80
2023-01-23T17:14:24.669Z,11.27
2023-01-23T17:16:53.438Z,11.30
2023-01-23T17:19:40.248Z,11.93
2023-01-23T17:22:30.370Z,10.30
2023-01-23T17:24:57.454Z,10.97
2023-01-23T17:27:24.521Z,10.97
2023-01-23T17:29:51.434Z,11.00
2023-01-23T17:32:39.183Z,11.10
2023-01-23T17:35:17.093Z,14.00
2023-01-23T17:37:44.210Z,10.13
2023-01-23T17:40:15.939Z,12.00
2023-01-23T17:42:43.724Z,11.90
2023-01-23T17:45:19.785Z,11.90
2023-01-23T17:47:54.771Z,15.00
2023-01-23T17:50:27.077Z,12.20
2023-01-23T17:52:54.836Z,11.90
2023-01-23T17:55:28.821Z,23.80
2023-01-23T17:57:55.707Z,15.20
2023-01-23T18:00:23.481Z,11.47
2023-01-23T18:03:01.941Z,11.03
2023-01-23T18:05:29.002Z,12.50
2023-01-23T18:07:56.284Z,11.83
2023-01-23T18:10:28.353Z,11.07
2023-01-23T18:13:14.208Z,11.07
2023-01-23T18:16:07.408Z,11.83
2023-01-23T18:18:39.066Z,15.90
2023-01-23T18:21:15.511Z,14.03
2023-01-23T18:23:43.196Z,13.80
2023-01-23T18:26:27.953Z,12.93
2023-01-23T18:29:10.127Z,12.97
2023-01-23T18:32:04.963Z,11.30
2023-01-23T18:35:25.408Z,11.50
2023-01-23T18:38:54.666Z,11.40
2023-01-23T18:41:27.094Z,11.87
2023-01-23T18:44:12.478Z,19.83
2023-01-23T18:46:39.732Z,15.83
2023-01-23T18:49:08.781Z,10.43
2023-01-23T18:51:49.684Z,12.57
2023-01-23T18:55:11.446Z,11.53
2023-01-23T18:58:20.941Z,13.93
2023-01-23T19:01:29.808Z,12.03
2023-01-23T19:03:57.592Z,10.03
2023-01-23T19:06:26.277Z,11.97
2023-01-23T19:08:54.480Z,10.83
2023-01-23T19:12:24.920Z,11.23
2023-01-23T19:15:41.444Z,11.77
2023-01-23T19:18:43.285Z,11.37
2023-01-23T19:21:26.664Z,11.43
2023-01-23T19:24:09.943Z,11.27
2023-01-23T19:26:42.009Z,11.10
2023-01-23T19:29:21.569Z,11.50
2023-01-23T19:32:06.924Z,11.87
2023-01-23T19:34:34.729Z,10.87
2023-01-23T19:37:02.905Z,10.40
2023-01-23T19:39:30.708Z,11.77
2023-01-23T19:41:59.358Z,11.50
2023-01-23T19:44:28.933Z,11.47
2023-01-23T19:46:56.094Z,11.60
2023-01-23T19:49:23.167Z,11.50
2023-01-23T19:51:50.195Z,11.53
2023-01-23T19:54:17.279Z,11.30
2023-01-23T19:56:44.224Z,10.90
2023-01-23T19:59:11.469Z,11.40
2023-01-23T20:01:52.294Z,10.97
2023-01-23T20:04:22.922Z,11.10
2023-01-23T20:06:51.843Z,11.00
2023-01-23T20:09:20.020Z,11.57
2023-01-23T20:11:47.923Z,10.53
2023-01-23T20:14:15.690Z,10.63
2023-01-23T20:16:44.538Z,11.30
2023-01-23T20:19:15.387Z,11.57
2023-01-23T20:21:42.552Z,11.33
2023-01-23T20:24:09.671Z,12.27
2023-01-23T20:26:38.725Z,10.63
2023-01-23T20:29:07.804Z,11.53
2023-01-23T20:31:35.763Z,11.63
2023-01-23T20:34:03.158Z,11.60
2023-01-23T20:36:30.306Z,10.87
2023-01-23T20:38:57.646Z,11.60
2023-01-23T20:41:24.781Z,10.67
2023-01-23T20:43:51.726Z,11.30
2023-01-23T20:46:21.631Z,10.73
2023-01-23T20:48:48.782Z,10.87
2023-01-23T20:51:16.830Z,11.20
2023-01-23T20:53:44.680Z,10.97
2023-01-23T20:56:19.409Z,11.30
2023-01-23T20:59:08.172Z,11.10
2023-01-23T21:01:57.842Z,11.13
2023-01-23T21:04:32.499Z,10.50
2023-01-23T21:07:00.223Z,11.00
2023-01-23T21:09:27.748Z,11.73
2023-01-23T21:11:55.506Z,11.13
2023-01-23T21:14:23.650Z,11.10
2023-01-23T21:16:50.664Z,11.03
2023-01-23T21:19:18.630Z,10.53
2023-01-23T21:21:46.884Z,11.67
2023-01-23T21:24:14.337Z,11.37
2023-01-23T21:26:41.826Z,11.40
2023-01-23T21:29:08.935Z,11.90
2023-01-23T21:31:39.305Z,11.27
2023-01-23T21:34:11.934Z,11.47
2023-01-23T21:36:41.020Z,11.83
2023-01-23T21:39:10.321Z,11.70
2023-01-23T21:41:37.587Z,11.80
2023-01-23T21:44:04.665Z,12.03
2023-01-23T21:46:31.656Z,12.63
2023-01-23T21:48:59.614Z,12.90
2023-01-23T21:51:27.783Z,12.87
2023-01-23T21:53:54.790Z,13.83
2023-01-23T21:56:23.982Z,12.87
2023-01-23T21:58:55.758Z,12.63
2023-01-23T22:01:42.021Z,12.83
2023-01-23T22:04:16.207Z,12.40
2023-01-23T22:07:01.358Z,13.17
2023-01-23T22:09:33.377Z,12.27
2023-01-23T22:12:01.196Z,13.53
2023-01-23T22:14:31.118Z,13.53
2023-01-23T22:16:58.443Z,12.63
2023-01-23T22:19:26.082Z,13.67
2023-01-23T22:21:55.946Z,13.10
2023-01-23T22:24:26.855Z,12.90
2023-01-23T22:26:55.094Z,12.77
2023-01-23T22:29:33.343Z,14.03
2023-01-23T22:32:12.484Z,13.47
2023-01-23T22:34:40.020Z,12.97
2023-01-23T22:37:08.247Z,12.40
2023-01-23T22:39:40.998Z,13.00
2023-01-23T22:42:19.737Z,13.40
2023-01-23T22:47:56.051Z,12.63
2023-01-23T22:50:34.979Z,12.10
2023-01-23T22:53:04.514Z,13.80
2023-01-23T22:55:32.069Z,13.97
2023-01-23T22:57:59.516Z,13.53
2023-01-23T23:00:31.996Z,13.77
2023-01-23T23:02:59.286Z,14.70
2023-01-23T23:05:27.145Z,13.80
2023-01-23T23:08:02.978Z,15.23
2023-01-23T23:10:30.645Z,14.33
2023-01-23T23:13:04.029Z,15.07
2023-01-23T23:15:41.770Z,14.17
2023-01-23T23:18:12.425Z,16.17
2023-01-23T23:20:42.706Z,15.93
2023-01-23T23:23:14.119Z,13.87
2023-01-23T23:25:42.111Z,15.53
2023-01-23T23:28:16.614Z,15.03
2023-01-23T23:31:01.264Z,14.93
2023-01-23T23:33:42.669Z,14.27
2023-01-23T23:36:23.626Z,14.00
2023-01-23T23:38:54.174Z,13.37
2023-01-23T23:41:36.040Z,13.00
2023-01-23T23:44:06.841Z,13.10
2023-01-23T23:46:40.143Z,12.10
2023-01-23T23:49:07.652Z,11.87
2023-01-23T23:51:37.624Z,12.33
2023-01-23T23:54:08.231Z,11.60
2023-01-23T23:56:35.749Z,11.70
2023-01-23T23:59:03.403Z,12.30
